createdAt,value
2023-03-26T00:01:33.957Z,5.22
2023-03-26T00:04:01.389Z,5.47
2023-03-26T00:06:36.870Z,5.10
2023-03-26T00:09:05.799Z,5.78
2023-03-26T00:11:33.192Z,5.68
2023-03-26T00:14:00.227Z,5.63
2023-03-26T00:16:30.367Z,7.13
2023-03-26T00:18:58.327Z,6.63
2023-03-26T00:21:28.450Z,6.55
2023-03-26T00:23:58.693Z,5.93
2023-03-26T00:26:31.349Z,5.80
2023-03-26T00:29:00.932Z,6.57
2023-03-26T00:31:28.054Z,6.97
2023-03-26T00:33:55.951Z,5.82
2023-03-26T00:36:25.820Z,6.93
2023-03-26T00:38:54.205Z,6.03
2023-03-26T00:41:31.172Z,6.28
2023-03-26T00:44:00.227Z,5.88
2023-03-26T00:46:29.968Z,5.47
2023-03-26T00:48:59.064Z,5.40
2023-03-26T00:51:28.254Z,4.75
2023-03-26T00:53:56.462Z,4.78
2023-03-26T00:56:23.939Z,3.88
2023-03-26T00:58:50.961Z,3.80
2023-03-26T01:01:28.757Z,4.50
2023-03-26T01:04:08.354Z,4.07
2023-03-26T01:06:39.266Z,4.43
2023-03-26T01:09:20.216Z,3.95
2023-03-26T01:11:48.969Z,3.95
2023-03-26T01:14:23.731Z,4.07
2023-03-26T01:16:58.229Z,4.97
2023-03-26T01:19:29.795Z,5.15
2023-03-26T01:21:59.168Z,4.75
2023-03-26T01:24:26.624Z,4.22
2023-03-26T01:27:18.714Z,4.38
2023-03-26T01:29:54.262Z,4.35
2023-03-26T01:32:33.422Z,4.25
2023-03-26T01:35:29.400Z,4.72
2023-03-26T01:38:10.918Z,4.00
2023-03-26T01:40:51.537Z,3.83
2023-03-26T01:43:26.830Z,4.47
2023-03-26T01:45:54.624Z,4.60
2023-03-26T01:48:31.329Z,4.30
2023-03-26T01:50:58.961Z,3.85
2023-03-26T01:53:27.161Z,4.40
2023-03-26T01:56:06.168Z,4.10
2023-03-26T01:58:58.712Z,4.32
2023-03-26T02:02:09.193Z,4.40
2023-03-26T02:05:15.958Z,4.50
2023-03-26T02:07:56.274Z,4.55
2023-03-26T02:10:23.464Z,4.53
2023-03-26T02:12:51.297Z,4.70
2023-03-26T02:15:19.066Z,4.72
2023-03-26T02:17:47.133Z,4.47
2023-03-26T02:20:15.813Z,3.40
2023-03-26T02:22:46.175Z,3.55
2023-03-26T02:25:20.313Z,3.88
2023-03-26T02:27:52.156Z,3.97
2023-03-26T02:30:27.214Z,3.80
2023-03-26T02:33:00.383Z,3.97
2023-03-26T02:35:35.541Z,3.28
2023-03-26T02:38:03.501Z,3.50
2023-03-26T02:40:30.822Z,3.25
2023-03-26T02:42:58.889Z,3.17
2023-03-26T02:45:28.160Z,3.63
2023-03-26T02:48:15.472Z,5.75
2023-03-26T02:50:43.328Z,5.57
2023-03-26T02:53:31.614Z,6.53
2023-03-26T02:56:34.192Z,7.43
2023-03-26T02:59:33.932Z,6.30
2023-03-26T03:02:40.024Z,6.40
2023-03-26T03:05:38.223Z,6.80
2023-03-26T03:08:14.512Z,5.97
2023-03-26T03:11:03.172Z,6.30
2023-03-26T03:13:38.490Z,6.05
2023-03-26T03:16:06.065Z,6.07
2023-03-26T03:18:33.658Z,5.53
2023-03-26T03:21:03.151Z,5.95
2023-03-26T03:23:31.979Z,5.55
2023-03-26T03:26:21.902Z,4.20
2023-03-26T03:28:56.591Z,4.40
2023-03-26T03:31:25.887Z,4.13
2023-03-26T03:33:57.343Z,5.13
2023-03-26T03:36:28.080Z,4.47
2023-03-26T03:39:17.954Z,5.15
2023-03-26T03:41:45.403Z,4.60
2023-03-26T03:44:15.159Z,4.78
2023-03-26T03:46:42.796Z,4.18
2023-03-26T03:49:10.179Z,4.05
2023-03-26T03:51:38.201Z,4.30
2023-03-26T03:54:14.576Z,4.10
2023-03-26T03:56:49.233Z,4.43
2023-03-26T03:59:25.356Z,4.05
2023-03-26T04:01:52.852Z,4.20
2023-03-26T04:04:27.908Z,4.20
2023-03-26T04:07:04.495Z,4.18
2023-03-26T04:09:51.589Z,3.92
2023-03-26T04:12:21.313Z,3.78
2023-03-26T04:14:57.781Z,3.83
2023-03-26T04:17:26.017Z,4.28
2023-03-26T04:19:55.802Z,4.13
2023-03-26T04:22:34.807Z,4.10
2023-03-26T04:25:05.431Z,3.83
2023-03-26T04:27:41.850Z,4.40
2023-03-26T04:30:20.784Z,3.55
2023-03-26T04:33:04.328Z,3.35
2023-03-26T04:35:34.851Z,3.42
2023-03-26T04:38:06.623Z,2.67
2023-03-26T04:40:39.294Z,2.70
2023-03-26T04:43:31.419Z,2.88
2023-03-26T04:46:27.919Z,2.80
2023-03-26T04:49:15.732Z,2.72
2023-03-26T04:51:44.976Z,3.42
2023-03-26T04:54:43.414Z,3.00
2023-03-26T04:57:25.627Z,2.92
2023-03-26T04:59:58.800Z,3.50
2023-03-26T05:02:26.788Z,3.25
2023-03-26T05:04:57.354Z,3.35
2023-03-26T05:07:28.640Z,3.30
2023-03-26T05:09:57.748Z,3.88
2023-03-26T05:12:37.614Z,3.85
2023-03-26T05:15:18.108Z,3.15
2023-03-26T05:17:59.620Z,2.90
2023-03-26T05:20:36.145Z,3.20
2023-03-26T05:23:07.575Z,3.15
2023-03-26T05:25:41.364Z,3.20
2023-03-26T05:28:24.410Z,3.75
2023-03-26T05:30:58.197Z,3.28
2023-03-26T05:33:27.803Z,3.00
2023-03-26T05:36:09.461Z,3.50
2023-03-26T05:38:37.258Z,2.63
2023-03-26T05:41:08.751Z,3.58
2023-03-26T05:43:38.107Z,3.42
2023-03-26T05:46:25.102Z,2.95
2023-03-26T05:48:52.723Z,2.70
2023-03-26T05:51:21.085Z,3.25
2023-03-26T05:53:57.689Z,2.63
2023-03-26T05:56:48.094Z,2.97
2023-03-26T05:59:33.583Z,3.15
2023-03-26T06:02:18.770Z,3.08
2023-03-26T06:05:10.285Z,3.67
2023-03-26T06:07:53.527Z,3.15
2023-03-26T06:10:20.934Z,3.40
2023-03-26T06:12:49.779Z,3.47
2023-03-26T06:15:19.708Z,3.75
2023-03-26T06:17:49.424Z,3.53
2023-03-26T06:20:48.820Z,3.80
2023-03-26T06:23:25.519Z,4.43
2023-03-26T06:26:05.936Z,3.72
2023-03-26T06:28:51.942Z,3.80
2023-03-26T06:31:34.012Z,3.92
2023-03-26T06:34:22.319Z,3.75
2023-03-26T06:36:52.705Z,4.05
2023-03-26T06:39:21.849Z,4.05
2023-03-26T06:42:21.282Z,11.90
2023-03-26T06:45:27.372Z,3.45
2023-03-26T06:48:17.398Z,3.40
2023-03-26T06:50:58.025Z,3.50
2023-03-26T06:53:45.066Z,3.67
2023-03-26T06:56:38.240Z,4.22
2023-03-26T06:59:26.712Z,4.75
2023-03-26T07:02:12.431Z,5.05
2023-03-26T07:05:06.139Z,4.43
2023-03-26T07:07:51.993Z,4.65
2023-03-26T07:10:37.488Z,4.05
2023-03-26T07:13:13.642Z,3.85
2023-03-26T07:15:50.006Z,3.70
2023-03-26T07:18:30.546Z,3.85
2023-03-26T07:20:58.909Z,3.70
2023-03-26T07:23:30.616Z,4.18
2023-03-26T07:26:39.712Z,4.10
2023-03-26T07:29:22.111Z,3.75
2023-03-26T07:32:43.548Z,4.60
2023-03-26T07:35:55.757Z,4.82
2023-03-26T07:38:51.925Z,4.55
2023-03-26T07:41:57.607Z,4.50
2023-03-26T07:44:59.739Z,4.88
2023-03-26T07:47:53.972Z,4.95
2023-03-26T07:50:43.962Z,4.63
2023-03-26T07:53:23.442Z,4.97
2023-03-26T07:56:21.438Z,4.63
2023-03-26T07:59:31.274Z,4.55
2023-03-26T08:03:01.395Z,5.43
2023-03-26T08:06:36.323Z,5.55
2023-03-26T08:09:42.138Z,6.25
2023-03-26T08:12:52.752Z,5.47
2023-03-26T08:15:41.973Z,5.55
2023-03-26T08:18:27.624Z,5.10
2023-03-26T08:21:01.229Z,5.43
2023-03-26T08:23:38.348Z,5.30
2023-03-26T08:26:40.137Z,3.45
2023-03-26T08:29:34.639Z,3.30
2023-03-26T08:32:05.238Z,3.20
2023-03-26T08:34:32.483Z,3.75
2023-03-26T08:36:59.841Z,3.42
2023-03-26T08:39:26.957Z,3.72
2023-03-26T08:42:16.033Z,3.00
2023-03-26T08:45:01.927Z,2.80
2023-03-26T08:47:52.021Z,2.50
2023-03-26T08:50:53.508Z,2.28
2023-03-26T08:53:23.721Z,3.28
2023-03-26T08:56:23.287Z,2.05
2023-03-26T08:59:16.012Z,2.80
2023-03-26T09:01:58.316Z,3.72
2023-03-26T09:04:28.090Z,3.28
2023-03-26T09:07:15.579Z,3.45
2023-03-26T09:10:19.848Z,3.72
2023-03-26T09:13:14.334Z,3.63
2023-03-26T09:15:59.843Z,4.32
2023-03-26T09:18:48.513Z,4.25
2023-03-26T09:21:38.090Z,4.30
2023-03-26T09:24:25.643Z,3.90
2023-03-26T09:26:56.135Z,3.67
2023-03-26T09:29:54.036Z,3.85
2023-03-26T09:33:03.556Z,4.85
2023-03-26T09:35:55.670Z,4.38
2023-03-26T09:38:45.983Z,5.72
2023-03-26T09:41:18.897Z,4.00
2023-03-26T09:44:04.323Z,3.60
2023-03-26T09:46:46.662Z,2.78
2023-03-26T09:49:32.343Z,2.70
2023-03-26T09:52:50.476Z,2.42
2023-03-26T09:55:26.301Z,2.15
2023-03-26T09:58:20.127Z,2.17
2023-03-26T10:01:04.289Z,1.98
2023-03-26T10:03:49.369Z,2.35
2023-03-26T10:06:40.239Z,1.90
2023-03-26T10:09:19.594Z,1.70
2023-03-26T10:12:18.689Z,1.65
2023-03-26T10:15:11.333Z,1.67
2023-03-26T10:17:57.411Z,1.87
2023-03-26T10:20:32.414Z,1.80
2023-03-26T10:23:45.334Z,1.80
2023-03-26T10:26:24.686Z,1.70
2023-03-26T10:29:00.485Z,2.20
2023-03-26T10:31:27.608Z,2.55
2023-03-26T10:33:59.644Z,1.70
2023-03-26T10:37:10.096Z,1.70
2023-03-26T10:40:06.047Z,2.20
2023-03-26T10:42:50.871Z,2.22
2023-03-26T10:45:49.968Z,1.80
2023-03-26T10:48:25.947Z,1.98
2023-03-26T10:51:30.112Z,2.42
2023-03-26T10:54:00.955Z,2.10
2023-03-26T10:56:36.376Z,1.80
2023-03-26T10:59:12.486Z,2.58
2023-03-26T11:02:03.590Z,2.03
2023-03-26T11:05:05.060Z,2.60
2023-03-26T11:07:52.025Z,2.25
2023-03-26T11:10:32.341Z,2.30
2023-03-26T11:13:44.187Z,1.90
2023-03-26T11:16:47.400Z,2.50
2023-03-26T11:19:56.498Z,2.10
2023-03-26T11:22:38.717Z,1.70
2023-03-26T11:25:42.270Z,1.88
2023-03-26T11:28:25.933Z,1.90
2023-03-26T11:31:08.155Z,2.13
2023-03-26T11:33:47.496Z,1.65
2023-03-26T11:36:23.918Z,2.35
2023-03-26T11:38:54.180Z,2.53
2023-03-26T11:41:31.334Z,2.40
2023-03-26T11:44:27.351Z,2.60
2023-03-26T11:47:01.438Z,2.53
2023-03-26T11:49:29.688Z,2.10
2023-03-26T11:51:56.894Z,2.00
2023-03-26T11:54:23.912Z,2.40
2023-03-26T11:57:05.914Z,2.55
2023-03-26T11:59:56.976Z,2.70
2023-03-26T12:02:34.446Z,2.60
2023-03-26T12:05:26.551Z,2.60
2023-03-26T12:07:59.732Z,2.70
2023-03-26T12:10:29.222Z,2.53
2023-03-26T12:13:01.589Z,3.00
2023-03-26T12:15:31.201Z,3.05
2023-03-26T12:17:59.530Z,3.28
2023-03-26T12:20:26.558Z,2.80
2023-03-26T12:22:59.546Z,3.17
2023-03-26T12:25:39.231Z,2.63
2023-03-26T12:28:16.449Z,2.95
2023-03-26T12:31:01.060Z,3.20
2023-03-26T12:33:34.603Z,2.90
2023-03-26T12:36:26.806Z,2.78
2023-03-26T12:39:15.958Z,3.03
2023-03-26T12:42:52.600Z,2.88
2023-03-26T12:44:56.340Z,2.90
2023-03-26T12:47:57.495Z,2.28
2023-03-26T12:50:18.060Z,2.00
2023-03-26T12:53:37.784Z,1.95
2023-03-26T12:56:11.896Z,1.90
2023-03-26T12:58:51.266Z,2.63
2023-03-26T13:01:55.995Z,1.88
2023-03-26T13:04:38.039Z,1.98
2023-03-26T13:07:22.341Z,1.80
2023-03-26T13:09:58.209Z,1.70
2023-03-26T13:12:54.618Z,1.52
2023-03-26T13:15:35.711Z,1.88
2023-03-26T13:18:12.201Z,1.95
2023-03-26T13:20:58.725Z,1.70
2023-03-26T13:23:49.495Z,2.20
2023-03-26T13:26:22.742Z,2.75
2023-03-26T13:28:58.204Z,2.90
2023-03-26T13:31:36.259Z,2.97
2023-03-26T13:34:09.495Z,2.67
2023-03-26T13:39:21.684Z,2.60
2023-03-26T13:42:22.062Z,3.03
2023-03-26T13:45:15.746Z,2.63
2023-03-26T13:47:49.716Z,3.13
2023-03-26T13:50:27.950Z,2.33
2023-03-26T13:53:24.370Z,2.83
2023-03-26T13:56:00.471Z,2.95
2023-03-26T13:59:00.585Z,3.08
2023-03-26T14:01:35.426Z,2.47
2023-03-26T14:04:17.994Z,2.25
2023-03-26T14:06:48.096Z,2.83
2023-03-26T14:09:32.185Z,2.58
2023-03-26T14:12:22.527Z,2.40
2023-03-26T14:14:59.402Z,2.30
2023-03-26T14:17:31.469Z,2.40
2023-03-26T14:20:01.522Z,2.20
2023-03-26T14:22:28.601Z,2.42
2023-03-26T14:25:19.928Z,2.45
2023-03-26T14:28:11.163Z,2.28
2023-03-26T14:30:44.375Z,2.80
2023-03-26T14:36:07.266Z,2.25
2023-03-26T14:38:56.808Z,2.40
2023-03-26T14:41:39.026Z,2.65
2023-03-26T14:44:24.638Z,2.67
2023-03-26T14:47:09.820Z,2.53
2023-03-26T14:50:08.431Z,2.90
2023-03-26T14:52:51.998Z,3.20
2023-03-26T14:55:37.658Z,2.25
2023-03-26T14:58:34.401Z,2.50
2023-03-26T15:01:17.456Z,2.67
2023-03-26T15:04:16.122Z,2.90
2023-03-26T15:07:01.486Z,2.75
2023-03-26T15:09:49.255Z,3.10
2023-03-26T15:12:27.684Z,3.22
2023-03-26T15:15:16.672Z,2.95
2023-03-26T15:17:59.146Z,3.50
2023-03-26T15:21:02.124Z,3.55
2023-03-26T15:23:38.192Z,3.30
2023-03-26T15:26:42.770Z,3.17
2023-03-26T15:29:45.941Z,3.40
2023-03-26T15:32:57.329Z,3.10
2023-03-26T15:35:49.304Z,2.70
2023-03-26T15:38:42.708Z,2.83
2023-03-26T15:41:47.176Z,3.03
2023-03-26T15:44:26.654Z,3.05
2023-03-26T15:47:26.455Z,2.85
2023-03-26T15:50:30.782Z,2.17
2023-03-26T15:53:21.475Z,2.20
2023-03-26T15:56:07.559Z,2.50
2023-03-26T15:59:23.872Z,2.13
2023-03-26T16:02:08.035Z,2.08
2023-03-26T16:04:51.950Z,1.92
2023-03-26T16:07:39.236Z,2.15
2023-03-26T16:10:54.171Z,2.47
2023-03-26T16:13:35.110Z,2.70
2023-03-26T16:16:07.047Z,1.90
2023-03-26T16:18:45.228Z,1.90
2023-03-26T16:21:32.651Z,1.80
2023-03-26T16:24:03.013Z,2.20
2023-03-26T16:26:53.439Z,1.98
2023-03-26T16:29:22.594Z,2.30
2023-03-26T16:32:15.200Z,2.03
2023-03-26T16:34:51.352Z,2.30
2023-03-26T16:37:36.832Z,2.05
2023-03-26T16:40:22.676Z,2.65
2023-03-26T16:43:37.876Z,2.22
2023-03-26T16:46:20.077Z,2.28
2023-03-26T16:49:27.857Z,1.80
2023-03-26T16:51:58.066Z,1.50
2023-03-26T16:54:40.185Z,1.85
2023-03-26T16:57:13.327Z,1.85
2023-03-26T17:00:04.598Z,1.50
2023-03-26T17:02:46.560Z,2.67
2023-03-26T17:05:24.815Z,1.60
2023-03-26T17:08:01.855Z,1.42
2023-03-26T17:10:34.924Z,1.55
2023-03-26T17:13:43.595Z,1.75
2023-03-26T17:16:19.666Z,1.55
2023-03-26T17:19:05.657Z,1.77
2023-03-26T17:21:47.905Z,1.80
2023-03-26T17:24:40.881Z,1.85
2023-03-26T17:27:34.401Z,1.73
2023-03-26T17:30:23.679Z,2.00
2023-03-26T17:32:59.003Z,1.95
2023-03-26T17:35:47.157Z,1.95
2023-03-26T17:38:17.592Z,1.50
2023-03-26T17:40:58.751Z,3.67
2023-03-26T17:43:47.383Z,1.90
2023-03-26T17:46:33.368Z,1.95
2023-03-26T17:49:16.452Z,2.03
2023-03-26T17:52:15.199Z,2.25
2023-03-26T17:54:46.763Z,1.90
2023-03-26T17:57:40.301Z,2.50
2023-03-26T18:00:16.555Z,2.47
2023-03-26T18:02:54.191Z,2.42
2023-03-26T18:05:24.156Z,2.22
2023-03-26T18:08:15.831Z,2.85
2023-03-26T18:10:46.363Z,2.65
2023-03-26T18:13:15.454Z,2.53
2023-03-26T18:15:45.538Z,2.58
2023-03-26T18:18:20.062Z,2.50
2023-03-26T18:20:49.867Z,2.22
2023-03-26T18:23:39.469Z,2.75
2023-03-26T18:26:21.260Z,2.60
2023-03-26T18:28:54.112Z,2.60
2023-03-26T18:31:26.420Z,4.90
2023-03-26T18:34:03.360Z,5.65
2023-03-26T18:36:31.677Z,5.18
2023-03-26T18:38:59.872Z,4.25
2023-03-26T18:41:32.490Z,4.60
2023-03-26T18:44:05.504Z,4.00
2023-03-26T18:46:34.174Z,3.58
2023-03-26T18:49:03.103Z,3.53
2023-03-26T18:51:35.031Z,3.65
2023-03-26T18:54:10.436Z,3.60
2023-03-26T18:56:43.709Z,3.47
2023-03-26T19:01:49.037Z,3.53
2023-03-26T19:04:18.123Z,3.72
2023-03-26T19:06:46.337Z,4.70
2023-03-26T19:09:30.363Z,5.65
2023-03-26T19:12:07.071Z,6.90
2023-03-26T19:15:01.545Z,5.85
2023-03-26T19:17:34.744Z,4.50
2023-03-26T19:20:02.177Z,4.78
2023-03-26T19:22:31.744Z,4.90
2023-03-26T19:25:02.682Z,4.05
2023-03-26T19:27:30.501Z,3.47
2023-03-26T19:29:58.384Z,3.58
2023-03-26T19:32:34.799Z,3.47
2023-03-26T19:35:04.696Z,3.20
2023-03-26T19:37:32.656Z,3.15
2023-03-26T19:40:14.328Z,2.75
2023-03-26T19:42:44.825Z,2.80
2023-03-26T19:45:20.459Z,2.20
2023-03-26T19:50:42.763Z,2.22
2023-03-26T19:51:18.623Z,3.35
2023-03-26T19:53:17.956Z,2.40
2023-03-26T19:56:13.462Z,2.17
2023-03-26T19:58:41.853Z,2.28
2023-03-26T20:01:36.575Z,3.50
2023-03-26T20:04:06.962Z,2.55
2023-03-26T20:06:43.142Z,2.53
2023-03-26T20:09:13.004Z,2.67
2023-03-26T20:11:40.895Z,2.55
2023-03-26T20:14:14.378Z,2.53
2023-03-26T20:16:43.876Z,2.83
2023-03-26T20:19:14.283Z,2.30
2023-03-26T20:21:43.129Z,2.70
2023-03-26T20:24:19.892Z,2.88
2023-03-26T20:26:47.551Z,2.35
2023-03-26T20:29:15.415Z,2.50
2023-03-26T20:31:43.040Z,2.55
2023-03-26T20:34:20.180Z,2.13
2023-03-26T20:36:47.723Z,1.88
2023-03-26T20:39:24.251Z,2.10
2023-03-26T20:41:53.160Z,2.08
2023-03-26T20:44:22.160Z,2.22
2023-03-26T20:46:50.635Z,2.20
2023-03-26T20:49:18.611Z,2.05
2023-03-26T20:51:46.931Z,2.30
2023-03-26T20:54:17.837Z,2.30
2023-03-26T20:56:45.891Z,2.53
2023-03-26T20:59:19.240Z,2.50
2023-03-26T21:01:50.135Z,2.35
2023-03-26T21:04:18.078Z,2.40
2023-03-26T21:06:45.959Z,2.35
2023-03-26T21:09:18.322Z,2.30
2023-03-26T21:12:08.342Z,2.07
2023-03-26T21:14:44.421Z,2.63
2023-03-26T21:17:18.971Z,2.67
2023-03-26T21:19:47.358Z,3.03
2023-03-26T21:22:46.413Z,3.47
2023-03-26T21:25:38.695Z,2.97
2023-03-26T21:28:46.823Z,3.33
2023-03-26T21:31:18.754Z,3.20
2023-03-26T21:33:47.972Z,3.17
2023-03-26T21:36:18.189Z,2.85
2023-03-26T21:38:46.168Z,3.90
2023-03-26T21:41:29.699Z,3.00
2023-03-26T21:43:56.947Z,2.85
2023-03-26T21:46:24.534Z,3.00
2023-03-26T21:48:52.086Z,3.25
2023-03-26T21:51:19.569Z,3.15
2023-03-26T21:53:46.997Z,3.15
2023-03-26T21:56:29.046Z,2.90
2023-03-26T21:59:18.707Z,3.17
2023-03-26T22:02:16.762Z,3.30
2023-03-26T22:04:55.092Z,3.42
2023-03-26T22:07:49.528Z,3.95
2023-03-26T22:10:16.773Z,3.75
2023-03-26T22:12:43.790Z,3.67
2023-03-26T22:15:14.044Z,3.10
2023-03-26T22:17:42.287Z,4.07
2023-03-26T22:20:13.599Z,3.17
2023-03-26T22:22:48.942Z,3.47
2023-03-26T22:25:17.947Z,3.33
2023-03-26T22:27:46.596Z,3.60
2023-03-26T22:30:14.501Z,4.65
2023-03-26T22:32:43.429Z,4.03
2023-03-26T22:35:10.638Z,3.40
2023-03-26T22:37:38.001Z,3.20
2023-03-26T22:40:09.234Z,2.95
2023-03-26T22:42:36.702Z,3.20
2023-03-26T22:45:04.527Z,3.08
2023-03-26T22:47:33.935Z,3.08
2023-03-26T22:50:02.057Z,3.08
2023-03-26T22:52:30.521Z,2.97
2023-03-26T22:54:59.824Z,2.88
2023-03-26T22:57:27.609Z,3.30
2023-03-26T22:59:54.670Z,3.40
2023-03-26T23:02:22.217Z,3.63
2023-03-26T23:04:49.418Z,3.55
2023-03-26T23:07:16.683Z,4.45
2023-03-26T23:09:43.745Z,4.20
2023-03-26T23:12:10.989Z,4.53
2023-03-26T23:14:38.093Z,4.43
2023-03-26T23:17:05.368Z,2.97
2023-03-26T23:19:34.208Z,2.60
2023-03-26T23:22:01.437Z,2.53
2023-03-26T23:24:30.250Z,2.30
2023-03-26T23:26:57.390Z,2.28
2023-03-26T23:29:25.267Z,1.85
2023-03-26T23:31:53.092Z,2.03
2023-03-26T23:34:21.112Z,2.35
2023-03-26T23:36:48.243Z,2.05
2023-03-26T23:39:16.125Z,1.70
2023-03-26T23:41:44.017Z,1.50
2023-03-26T23:44:14.547Z,1.90
2023-03-26T23:46:43.023Z,2.10
2023-03-26T23:49:10.473Z,1.90
2023-03-26T23:51:37.697Z,1.55
2023-03-26T23:54:05.394Z,1.83
2023-03-26T23:56:32.752Z,1.80
2023-03-26T23:59:00.757Z,2.00
